Anacostia, District of Columbia
Current Conditions -  °F | °C
As of 8:52 AM on Thursday 29 Jan 2015 (Local Time) from KDCA Reporting Station
Overcast Overcast  
Wind Chill: -1°   Ceiling: 22000
Heat Index: -1°   Visibility: 10mi
Dew Point: -11°   Wind: 0mph
Humidity: 47%   Direction: NA
Pressure: 30.33"   Gusts: NA
Location:  38.8618°N, 77.0026°W
Report Text: KDCA 291352Z 00000KT 10SM OVC220 M01/M11 A3033 RMK AO2 SLP269 T10061106
Loading
Personal Weather Stations






























Interactive Weather Map New forecast layout! Learn more

10-Day Weather Forecast

Advertisements
Track Severe Weather on mobile